Terminal Aerodrome Forecast
Issued by NWS

Home | Current Version | Previous Version | Text Only | Print | Product List | Glossary On
Versions: 1 2 3 4 5 6 7 8 9 10 11 12 13 14 15 16 17 18 19 20 21 22 23 24 25 26 27 28 29
966
FTUS41 KOKX 292042 AAA
TAFTEB
TAF AMD
KTEB 292042Z 2921/3018 16009KT P6SM SCT010 BKN150
     FM300200 18005KT 4SM -SHRA BR BKN010 OVC100
     FM300300 19005KT 2SM SHRA BR SCT007 BKN015
      TEMPO 3006/3010 BKN007
     FM301000 20005KT 3SM SHRA BR BKN007 OVC015=

USA.gov is the U.S. government's official web portal to all federal, state and local government web resources and services.